Warrenton, NC (27589)

1:25 AM EST on February 09, 2016 (GMT -0500)
HEMC - Macon | | Change Station
CLOSE
Current Station
Personal Weather Station
Location: Macon, NC
Elevation: 384 ft
Nearby Weather Stations

Elev 384 ft 36.44 °N, 78.07 °W | Updated 8 minutes ago

Clear
Clear
35.5 °F
Feels Like 36 °F
N
0.0
Wind Variable Wind from North
Gusts 0.0 mph

Today
High -- | Low -- °F
--% Chance of Precip.
Yesterday
High -- | Low -- °F
Precip. -- in
Pressure 29.64 in
Visibility 10.0 miles
Clouds Clear
Windchill 36 °F
Dew Point 34 °F
Humidity 95%
Rainfall Not available.
Snow Depth Not available.
7:07 AM 5:46 PM
New Moon, 1% visible
METAR KAVC 090616Z AUTO 00000KT 10SM CLR 00/00 A2964 RMK AO2 T00040004
Pressure 29.64 in
Visibility 10.0 miles
Clouds Clear
Windchill 36 °F
Dew Point 34 °F
Humidity 95%
Rainfall Not available.
Snow Depth Not available.
7:07 AM 5:46 PM
New Moon, 1% visible
METAR KAVC 090616Z AUTO 00000KT 10SM CLR 00/00 A2964 RMK AO2 T00040004

10-Day Weather Forecast

Almanac

Astronomy

Feb. 09, 2016 Rise Set
Actual Time
Civil Twilight
Nautical Twilight
Astronomical Twilight
Moon
Length of Visible Light
Length of Day
Tomorrow will be .
, % of the Moon is Illuminated

Today's Extremes

State Highs State Lows

Community

WunderPhotos

Upload Photos

1,891,571 photos uploaded!

WunderBlog® & News

Nearby

Air Quality

  Air Quality AQ Index Pollutant
Not available.

Snow Depth

Station Depth Elevation

Earthquake Activity

City Distance Mag. Time & Date
Minimum magnitude displayed is 2.5.

Coastal Water Temperatures

Place Temperature

Stations

Nearby Weather Stations

Station Location Temp. Windchill Dew Point Humidity Wind Precip. Elev Updated Type
                   

Watches & Warnings

There are currently no watches in effect.